Decoded Metar for LEBL (BARCELONA in SPAIN) (IATA:BCN) | Meteo·Mobile Aviation Weather
aviador You're here:

LEBL Decoded Metar

BARCELONA in SPAIN
Report Time2020-02-22 21:00:00
UTC Time2020-02-22 21:35:12
Flight Rules ifr IFR
WindVRB at 02 kt
Visibility4000 m
Phenomena:Mist
Clouds:N/A
Expected CloudBase > 800 ft AGL from Temp-Dew spread
CeilingNone
Temp11°C (ISA -4)
Dew Point09°C (88% RH)
AAT10.1°C
QNH1034 hPa
Density Alt-1,004 ft
Elevation20 ft
Report Wrong Elevation
Raw Report
LEBL 222100Z VRB02KT 4000 BR NSC 11/09 Q1034 TEMPO 2900 BR=

Extra information for LEBL:More info

Metar Taf Metar & Taf Last 4 Metars F.Rules Stats Wind Profile Meteogram Temp Stats Airport Information Weather charts Add Link Nearby VenuesMetar ALERT Operation Metar Decoded Social comments